Time;durP1;ratioP1;P1;durP2;ratioP2;P2;SDS_P1;SDS_P2;PMS_P1;PMS_P2;Temp;Humidity;BMP_temperature;BMP_pressure;BME280_temperature;BME280_humidity;BME280_pressure;Samples;Min_cycle;Max_cycle;Signal;HPM_P1;HPM_P2
2021/09/08 00:01:54;;;;;;;19.55;12.85;;;;;;;;;;5013833;28;20061;-60
2021/09/08 00:04:19;;;;;;;17.45;12.68;;;;;;;;;;5013784;28;20018;-60
2021/09/08 00:06:45;;;;;;;18.75;12.20;;;;;;;;;;5013948;28;20044;-60
2021/09/08 00:09:10;;;;;;;14.65;10.77;;;;;;;;;;4995874;28;20064;-59
2021/09/08 00:11:36;;;;;;;13.48;10.38;;;;;;;;;;5013601;28;20029;-60
2021/09/08 00:14:01;;;;;;;13.35;10.38;;;;;;;;;;5013939;28;20022;-60
2021/09/08 00:16:27;;;;;;;15.20;10.90;;;;;;;;;;5013489;28;20025;-60
2021/09/08 00:18:52;;;;;;;15.70;11.30;;;;;;;;;;4995824;28;20468;-60
2021/09/08 00:21:18;;;;;;;15.98;10.60;;;;;;;;;;5013353;28;20026;-60
2021/09/08 00:23:43;;;;;;;18.05;12.15;;;;;;;;;;5013530;28;20025;-60
2021/09/08 00:26:08;;;;;;;18.80;12.05;;;;;;;;;;5013424;28;20030;-60
2021/09/08 00:28:34;;;;;;;18.73;12.55;;;;;;;;;;4995772;28;20384;-60
2021/09/08 00:31:00;;;;;;;16.00;11.07;;;;;;;;;;5013465;28;20037;-60
2021/09/08 00:33:26;;;;;;;13.52;10.55;;;;;;;;;;5017194;28;20136;-60
2021/09/08 00:35:53;;;;;;;23.08;12.65;;;;;;;;;;5016015;28;20496;-60
2021/09/08 00:38:20;;;;;;;23.33;13.65;;;;;;;;;;5016675;28;20104;-60
2021/09/08 00:40:46;;;;;;;23.15;14.27;;;;;;;;;;5017163;28;20496;-59
2021/09/08 00:43:11;;;;;;;23.85;13.43;;;;;;;;;;5017173;28;20018;-60
2021/09/08 00:45:37;;;;;;;19.42;12.60;;;;;;;;;;5017128;28;20060;-60
2021/09/08 00:48:03;;;;;;;24.95;13.90;;;;;;;;;;5017100;28;20108;-60
2021/09/08 00:50:28;;;;;;;25.70;14.18;;;;;;;;;;5017106;28;20062;-60
2021/09/08 00:52:57;;;;;;;25.10;15.00;;;;;;;;;;5017090;28;20017;-60
2021/09/08 00:55:26;;;;;;;17.00;11.65;;;;;;;;;;5016951;28;20472;-60
2021/09/08 00:57:52;;;;;;;17.50;11.85;;;;;;;;;;5017228;28;20029;-60
2021/09/08 01:00:19;;;;;;;15.77;11.23;;;;;;;;;;5016938;28;20065;-60
2021/09/08 01:02:46;;;;;;;13.73;10.57;;;;;;;;;;5016800;28;20026;-60
2021/09/08 01:05:14;;;;;;;14.10;10.80;;;;;;;;;;5016885;28;20054;-60
2021/09/08 01:07:44;;;;;;;14.18;9.75;;;;;;;;;;5017079;28;20033;-60
2021/09/08 01:10:10;;;;;;;13.65;9.80;;;;;;;;;;5017029;28;20033;-63
2021/09/08 01:12:36;;;;;;;17.52;11.85;;;;;;;;;;5016860;28;20022;-61
2021/09/08 01:15:01;;;;;;;16.20;10.80;;;;;;;;;;5016659;28;20025;-61
2021/09/08 01:17:27;;;;;;;17.60;10.68;;;;;;;;;;5016607;28;20018;-63
2021/09/08 01:19:53;;;;;;;16.40;11.18;;;;;;;;;;5015092;28;20064;-60
2021/09/08 01:22:19;;;;;;;16.35;11.43;;;;;;;;;;4999013;28;20026;-60
2021/09/08 01:24:44;;;;;;;15.90;11.55;;;;;;;;;;5016625;28;20076;-59
2021/09/08 01:27:09;;;;;;;19.13;11.95;;;;;;;;;;5016586;28;20022;-59
2021/09/08 01:29:35;;;;;;;13.07;9.93;;;;;;;;;;5016141;28;20092;-59
2021/09/08 01:32:00;;;;;;;16.17;10.75;;;;;;;;;;5015810;28;20101;-60
2021/09/08 01:34:26;;;;;;;13.73;9.82;;;;;;;;;;5016438;28;20113;-60
2021/09/08 01:36:52;;;;;;;15.15;9.98;;;;;;;;;;5016523;28;20018;-60
2021/09/08 01:39:21;;;;;;;16.70;10.32;;;;;;;;;;5015940;28;20038;-60
2021/09/08 01:41:47;;;;;;;14.38;10.18;;;;;;;;;;4998608;28;20084;-60
2021/09/08 01:44:16;;;;;;;15.98;10.45;;;;;;;;;;5015489;28;20054;-60
2021/09/08 01:46:41;;;;;;;15.45;9.65;;;;;;;;;;4998488;28;20499;-63
2021/09/08 01:49:07;;;;;;;13.93;9.82;;;;;;;;;;5015777;28;20038;-63
2021/09/08 01:51:32;;;;;;;16.60;10.13;;;;;;;;;;5016387;28;20064;-62
2021/09/08 01:53:57;;;;;;;14.07;9.77;;;;;;;;;;5015917;28;20026;-60
2021/09/08 01:56:23;;;;;;;12.68;9.35;;;;;;;;;;5015725;28;20018;-60
2021/09/08 01:58:48;;;;;;;14.98;9.88;;;;;;;;;;5015943;28;20029;-64
2021/09/08 02:01:14;;;;;;;13.02;9.70;;;;;;;;;;5015716;28;20018;-62
2021/09/08 02:03:39;;;;;;;12.23;9.27;;;;;;;;;;5015643;28;20101;-62
2021/09/08 02:06:18;;;;;;;15.35;9.30;;;;;;;;;;5016419;28;20013;-59
2021/09/08 02:08:43;;;;;;;13.35;8.70;;;;;;;;;;5015605;28;20034;-59
2021/09/08 02:11:09;;;;;;;14.40;9.52;;;;;;;;;;5015643;28;20484;-62
2021/09/08 02:13:37;;;;;;;14.35;8.85;;;;;;;;;;5016045;28;20026;-61
2021/09/08 02:16:02;;;;;;;15.18;9.30;;;;;;;;;;5015506;28;20526;-61
2021/09/08 02:18:28;;;;;;;13.45;9.50;;;;;;;;;;5015546;28;20360;-62
2021/09/08 02:20:53;;;;;;;18.45;9.88;;;;;;;;;;5015376;28;20366;-61
2021/09/08 02:23:19;;;;;;;13.02;9.40;;;;;;;;;;4998088;28;20038;-61
2021/09/08 02:25:44;;;;;;;14.05;8.85;;;;;;;;;;5015395;28;20112;-61
2021/09/08 02:28:10;;;;;;;12.55;8.82;;;;;;;;;;5015596;28;20071;-62
2021/09/08 02:30:35;;;;;;;14.82;9.38;;;;;;;;;;5015115;28;20022;-61
2021/09/08 02:33:00;;;;;;;14.40;9.90;;;;;;;;;;5015442;28;20099;-61
2021/09/08 02:35:26;;;;;;;13.23;9.38;;;;;;;;;;5015374;28;20021;-61
2021/09/08 02:37:52;;;;;;;14.77;9.88;;;;;;;;;;5014584;28;20038;-62
2021/09/08 02:40:17;;;;;;;17.45;9.45;;;;;;;;;;4997605;28;20088;-60
2021/09/08 02:42:43;;;;;;;12.93;9.07;;;;;;;;;;5014977;28;20096;-60
2021/09/08 02:45:09;;;;;;;10.93;8.13;;;;;;;;;;5015045;28;20045;-61
2021/09/08 02:47:35;;;;;;;13.88;8.43;;;;;;;;;;5014897;28;20120;-61
2021/09/08 02:50:00;;;;;;;20.27;10.43;;;;;;;;;;5014977;28;20041;-61
2021/09/08 02:52:26;;;;;;;16.05;10.00;;;;;;;;;;5015049;28;20038;-61
2021/09/08 02:54:51;;;;;;;15.30;9.68;;;;;;;;;;5014352;28;20025;-62
2021/09/08 02:57:16;;;;;;;16.25;10.07;;;;;;;;;;5014132;28;20755;-62
2021/09/08 02:59:42;;;;;;;16.30;9.98;;;;;;;;;;5014611;28;20097;-62
2021/09/08 03:02:07;;;;;;;19.85;10.77;;;;;;;;;;5014518;28;20026;-62
2021/09/08 03:04:34;;;;;;;22.83;13.82;;;;;;;;;;5014575;28;20026;-62
2021/09/08 03:07:00;;;;;;;20.25;11.35;;;;;;;;;;4997127;28;20120;-60
2021/09/08 03:09:25;;;;;;;23.08;12.98;;;;;;;;;;5014296;28;20112;-60
2021/09/08 03:11:51;;;;;;;17.50;11.25;;;;;;;;;;5014481;28;20033;-60
2021/09/08 03:14:16;;;;;;;22.08;12.68;;;;;;;;;;5014613;28;20014;-60
2021/09/08 03:16:41;;;;;;;21.23;13.13;;;;;;;;;;5014434;28;20457;-60
2021/09/08 03:19:07;;;;;;;21.60;13.35;;;;;;;;;;4996973;28;20022;-62
2021/09/08 03:21:32;;;;;;;17.30;11.60;;;;;;;;;;5014230;28;20061;-61
2021/09/08 03:23:58;;;;;;;19.25;12.13;;;;;;;;;;5014236;28;20033;-61
2021/09/08 03:26:23;;;;;;;21.27;13.80;;;;;;;;;;5014212;28;20030;-61
2021/09/08 03:28:49;;;;;;;19.27;13.88;;;;;;;;;;5014538;28;20412;-61
2021/09/08 03:31:14;;;;;;;21.50;12.68;;;;;;;;;;5014400;28;20030;-63
2021/09/08 03:33:39;;;;;;;17.63;12.60;;;;;;;;;;5014078;28;20420;-60
2021/09/08 03:36:05;;;;;;;21.85;13.27;;;;;;;;;;5014115;28;20029;-60
2021/09/08 03:38:30;;;;;;;20.70;13.20;;;;;;;;;;4996437;28;20052;-60
2021/09/08 03:40:56;;;;;;;44.30;14.27;;;;;;;;;;5014507;28;20022;-60
2021/09/08 03:43:21;;;;;;;21.65;12.48;;;;;;;;;;5013950;28;20034;-60
2021/09/08 03:45:48;;;;;;;19.27;12.38;;;;;;;;;;5014076;28;20396;-60
2021/09/08 03:48:13;;;;;;;19.63;12.95;;;;;;;;;;5013902;28;20029;-60
2021/09/08 03:50:39;;;;;;;19.70;12.18;;;;;;;;;;5013715;28;20037;-60
2021/09/08 03:53:04;;;;;;;18.90;11.43;;;;;;;;;;4996569;28;20013;-60
2021/09/08 03:55:30;;;;;;;16.27;10.50;;;;;;;;;;5013715;28;20026;-60
2021/09/08 03:57:56;;;;;;;16.83;10.88;;;;;;;;;;5013815;28;20479;-60
2021/09/08 04:00:22;;;;;;;16.40;10.82;;;;;;;;;;5014092;28;20465;-60
2021/09/08 04:02:47;;;;;;;18.95;11.30;;;;;;;;;;4996104;28;20030;-60
2021/09/08 04:05:13;;;;;;;17.42;10.10;;;;;;;;;;5013587;28;20084;-60
2021/09/08 04:07:39;;;;;;;15.18;8.73;;;;;;;;;;5013337;28;20014;-62
2021/09/08 04:10:05;;;;;;;14.18;9.57;;;;;;;;;;5013472;28;20041;-61
2021/09/08 04:12:30;;;;;;;14.30;9.77;;;;;;;;;;5013583;28;20105;-61
2021/09/08 04:14:56;;;;;;;15.05;9.02;;;;;;;;;;5013409;28;20109;-61
2021/09/08 04:17:21;;;;;;;11.75;8.38;;;;;;;;;;4996019;28;20045;-62
2021/09/08 04:19:47;;;;;;;10.35;7.60;;;;;;;;;;5013059;28;20030;-60
2021/09/08 04:22:12;;;;;;;9.98;7.80;;;;;;;;;;5013613;28;20101;-61
2021/09/08 04:24:38;;;;;;;11.43;7.85;;;;;;;;;;5012044;28;20559;-61
2021/09/08 04:27:04;;;;;;;11.85;7.60;;;;;;;;;;5013419;28;20021;-61
2021/09/08 04:29:29;;;;;;;11.55;7.32;;;;;;;;;;4995592;28;20045;-61
2021/09/08 04:31:55;;;;;;;13.20;8.77;;;;;;;;;;5013026;28;20025;-61
2021/09/08 04:34:20;;;;;;;10.10;7.88;;;;;;;;;;4995711;28;20038;-60
2021/09/08 04:47:57;;;;;;;11.63;7.75;;;;;;;;;;5013574;28;20036;-61
2021/09/08 04:53:58;;;;;;;9.77;7.68;;;;;;;;;;5013776;28;20029;-61
2021/09/08 04:59:58;;;;;;;10.90;7.63;;;;;;;;;;5013451;28;20029;-61
2021/09/08 05:05:58;;;;;;;11.80;7.50;;;;;;;;;;5013698;28;20419;-60
2021/09/08 05:11:58;;;;;;;10.75;7.53;;;;;;;;;;5013377;28;20114;-61
2021/09/08 05:17:59;;;;;;;11.13;7.57;;;;;;;;;;5013605;28;20033;-60
2021/09/08 05:24:00;;;;;;;9.60;6.88;;;;;;;;;;5017102;28;20032;-60
2021/09/08 05:30:01;;;;;;;9.00;6.93;;;;;;;;;;5016809;28;20057;-60
2021/09/08 05:39:49;;;;;;;14.75;9.48;;;;;;;;;;5016784;28;20607;-60
2021/09/08 05:53:24;;;;;;;19.05;10.93;;;;;;;;;;5016553;28;20388;-61
2021/09/08 05:59:25;;;;;;;18.50;11.20;;;;;;;;;;5016406;28;20033;-61
2021/09/08 06:05:26;;;;;;;19.77;11.57;;;;;;;;;;5016305;28;20072;-61
2021/09/08 06:11:27;;;;;;;17.17;11.73;;;;;;;;;;5016157;28;20033;-61
2021/09/08 06:17:28;;;;;;;21.45;12.32;;;;;;;;;;5016069;28;20072;-61
2021/09/08 06:23:29;;;;;;;37.72;19.52;;;;;;;;;;5015715;28;20045;-61
2021/09/08 06:39:48;;;;;;;30.77;14.88;;;;;;;;;;5015638;28;20125;-61
2021/09/08 06:45:49;;;;;;;23.05;12.75;;;;;;;;;;5015528;28;20097;-61
2021/09/08 06:55:38;;;;;;;12.30;9.65;;;;;;;;;;5015620;28;20067;-61
2021/09/08 07:01:39;;;;;;;14.05;9.07;;;;;;;;;;5015255;28;20033;-61
2021/09/08 07:07:40;;;;;;;11.65;8.55;;;;;;;;;;5015143;28;20028;-61
2021/09/08 07:13:41;;;;;;;13.10;8.25;;;;;;;;;;5015057;28;20069;-60
2021/09/08 07:19:42;;;;;;;11.48;8.35;;;;;;;;;;5014725;28;20132;-61
2021/09/08 07:25:42;;;;;;;12.23;8.27;;;;;;;;;;5015133;28;20036;-61
2021/09/08 07:31:43;;;;;;;10.98;8.68;;;;;;;;;;5014491;28;20032;-61
2021/09/08 07:37:44;;;;;;;13.23;8.43;;;;;;;;;;5014391;28;20032;-61
2021/09/08 07:43:46;;;;;;;10.43;7.88;;;;;;;;;;5014542;28;20029;-61
2021/09/08 07:49:46;;;;;;;13.35;8.50;;;;;;;;;;5014127;28;20562;-61
2021/09/08 07:58:57;;;;;;;10.55;7.80;;;;;;;;;;5014303;28;20163;-60
2021/09/08 08:08:48;;;;;;;9.98;7.80;;;;;;;;;;5014227;28;20117;-61
2021/09/08 08:14:49;;;;;;;13.88;7.55;;;;;;;;;;5014151;28;20517;-61
2021/09/08 08:20:50;;;;;;;10.60;7.25;;;;;;;;;;5014088;28;20028;-60
2021/09/08 08:26:50;;;;;;;8.43;6.85;;;;;;;;;;5013790;28;20620;-61
2021/09/08 08:32:51;;;;;;;8.13;6.50;;;;;;;;;;5013984;28;20089;-61
2021/09/08 08:38:52;;;;;;;12.80;7.88;;;;;;;;;;5013962;28;20535;-61
2021/09/08 08:44:53;;;;;;;8.77;6.28;;;;;;;;;;5013919;28;20153;-61
2021/09/08 08:50:54;;;;;;;8.82;6.80;;;;;;;;;;5013569;28;20451;-62
2021/09/08 09:00:43;;;;;;;7.70;6.82;;;;;;;;;;5017812;28;20028;-61
2021/09/08 09:06:48;;;;;;;8.40;6.20;;;;;;;;;;5017466;28;20033;-61
2021/09/08 09:12:49;;;;;;;8.32;6.57;;;;;;;;;;5017307;28;20025;-61
2021/09/08 09:18:50;;;;;;;7.78;5.72;;;;;;;;;;5017226;28;20033;-61
2021/09/08 09:24:52;;;;;;;7.20;5.85;;;;;;;;;;5017103;28;20499;-61
2021/09/08 09:34:49;;;;;;;7.63;5.70;;;;;;;;;;5016912;28;20092;-61
2021/09/08 09:40:49;;;;;;;6.03;5.10;;;;;;;;;;5016796;28;20516;-61
2021/09/08 09:46:54;;;;;;;7.03;5.68;;;;;;;;;;5016447;28;20028;-61
2021/09/08 09:52:55;;;;;;;6.55;5.72;;;;;;;;;;5016577;28;20029;-61
2021/09/08 10:02:31;;;;;;;7.50;5.38;;;;;;;;;;5016407;28;20041;-62
2021/09/08 10:08:34;;;;;;;5.60;5.07;;;;;;;;;;5016039;28;20117;-61
2021/09/08 10:14:34;;;;;;;7.32;5.80;;;;;;;;;;5016168;28;20033;-61
2021/09/08 10:20:36;;;;;;;6.57;4.72;;;;;;;;;;5015789;28;20037;-61
2021/09/08 10:30:11;;;;;;;7.50;5.80;;;;;;;;;;5015666;28;20556;-61
2021/09/08 10:36:13;;;;;;;6.78;5.55;;;;;;;;;;5015515;28;20088;-61
2021/09/08 10:42:15;;;;;;;6.10;4.90;;;;;;;;;;5015407;28;20466;-61
2021/09/08 11:02:56;;;;;;;6.55;5.70;;;;;;;;;;4973997;28;20029;-61
2021/09/08 11:08:59;;;;;;;9.65;6.30;;;;;;;;;;4974148;28;20046;-60
2021/09/08 11:15:31;;;;;;;7.53;6.47;;;;;;;;;;4973645;28;20516;-61
2021/09/08 11:25:21;;;;;;;7.05;5.28;;;;;;;;;;4995284;28;20093;-60
2021/09/08 11:31:22;;;;;;;7.70;6.65;;;;;;;;;;4994858;28;20118;-60
2021/09/08 11:37:23;;;;;;;9.02;6.25;;;;;;;;;;4995057;28;20046;-61
2021/09/08 11:50:34;;;;;;;7.75;6.35;;;;;;;;;;4994668;28;20133;-60
2021/09/08 11:56:39;;;;;;;10.50;6.53;;;;;;;;;;4994764;28;20166;-61
2021/09/08 12:10:07;;;;;;;9.95;6.85;;;;;;;;;;5014106;28;20048;-61
2021/09/08 12:16:08;;;;;;;5.57;5.05;;;;;;;;;;5014068;28;20037;-60
2021/09/08 12:22:19;;;;;;;5.28;4.78;;;;;;;;;;5014397;28;20032;-61
2021/09/08 12:28:20;;;;;;;5.90;5.00;;;;;;;;;;5015835;28;20098;-60
2021/09/08 12:34:21;;;;;;;6.03;5.25;;;;;;;;;;5018071;28;20404;-61
2021/09/08 12:40:21;;;;;;;5.75;5.20;;;;;;;;;;5017959;28;20033;-61
2021/09/08 12:53:32;;;;;;;6.82;6.22;;;;;;;;;;5017730;28;20093;-61
2021/09/08 12:59:35;;;;;;;6.30;5.00;;;;;;;;;;5017614;28;20032;-61
2021/09/08 13:05:35;;;;;;;6.43;4.90;;;;;;;;;;5017478;28;20088;-61
2021/09/08 13:11:49;;;;;;;4.90;4.47;;;;;;;;;;5017379;28;20092;-61
2021/09/08 13:21:50;;;;;;;6.05;5.32;;;;;;;;;;5017184;28;20040;-61
2021/09/08 13:27:51;;;;;;;5.88;5.03;;;;;;;;;;5017072;28;20113;-61
2021/09/08 13:33:52;;;;;;;8.48;5.60;;;;;;;;;;5016968;28;20503;-61
2021/09/08 13:39:53;;;;;;;7.45;5.13;;;;;;;;;;5015931;28;20392;-61
2021/09/08 13:45:53;;;;;;;5.40;4.85;;;;;;;;;;5016759;28;20487;-61
2021/09/08 13:51:53;;;;;;;7.00;4.80;;;;;;;;;;5016656;28;20065;-61
2021/09/08 13:57:54;;;;;;;6.50;4.70;;;;;;;;;;5016510;28;20033;-61
2021/09/08 14:03:54;;;;;;;5.65;4.38;;;;;;;;;;5016377;28;20109;-61
2021/09/08 14:13:25;;;;;;;5.15;4.50;;;;;;;;;;5016281;28;20064;-61
2021/09/08 14:19:26;;;;;;;6.30;5.68;;;;;;;;;;5016100;28;20145;-61
2021/09/08 14:25:27;;;;;;;6.95;5.30;;;;;;;;;;5015988;28;20072;-62
2021/09/08 14:31:28;;;;;;;5.88;5.22;;;;;;;;;;5015672;28;20036;-61
2021/09/08 14:37:29;;;;;;;7.25;5.03;;;;;;;;;;5015793;28;20173;-61
2021/09/08 14:43:30;;;;;;;7.05;5.03;;;;;;;;;;5015684;28;20028;-61
2021/09/08 14:49:31;;;;;;;5.22;4.57;;;;;;;;;;5015454;28;20079;-61
2021/09/08 14:59:07;;;;;;;6.38;5.78;;;;;;;;;;5015094;28;20117;-61
2021/09/08 15:05:08;;;;;;;5.20;4.70;;;;;;;;;;5015261;28;20476;-61
2021/09/08 15:18:45;;;;;;;7.40;4.80;;;;;;;;;;5012900;28;20068;-61
2021/09/08 15:27:57;;;;;;;5.50;4.90;;;;;;;;;;5014857;28;20037;-61
2021/09/08 15:33:58;;;;;;;9.55;5.47;;;;;;;;;;5014582;28;20020;-61
2021/09/08 15:36:24;;;;;;;8.00;5.40;;;;;;;;;;5014067;28;20030;-61
2021/09/08 15:38:49;;;;;;;5.70;4.97;;;;;;;;;;5014159;28;20060;-60
2021/09/08 15:41:15;;;;;;;5.30;4.85;;;;;;;;;;4996479;28;20033;-60
2021/09/08 15:43:40;;;;;;;6.13;5.40;;;;;;;;;;5013977;28;20076;-60
2021/09/08 15:46:06;;;;;;;6.68;5.93;;;;;;;;;;4985908;28;20041;-60
2021/09/08 15:48:32;;;;;;;7.90;5.80;;;;;;;;;;5010824;28;20041;-60
2021/09/08 15:50:57;;;;;;;6.30;5.70;;;;;;;;;;5010483;28;20041;-60
2021/09/08 15:53:24;;;;;;;6.47;5.88;;;;;;;;;;5010804;28;20021;-60
2021/09/08 15:55:51;;;;;;;6.75;6.07;;;;;;;;;;5010737;28;20046;-60
2021/09/08 15:58:17;;;;;;;8.02;6.32;;;;;;;;;;5011232;28;20018;-60
2021/09/08 16:00:44;;;;;;;7.85;6.85;;;;;;;;;;5009620;28;20811;-60
2021/09/08 16:03:10;;;;;;;9.15;6.32;;;;;;;;;;5010481;28;20064;-60
2021/09/08 16:05:35;;;;;;;10.18;7.60;;;;;;;;;;5011144;28;20062;-60
2021/09/08 16:08:04;;;;;;;10.45;7.95;;;;;;;;;;5011401;28;20800;-60
2021/09/08 16:10:30;;;;;;;13.75;8.98;;;;;;;;;;5011220;28;20112;-60
2021/09/08 16:12:55;;;;;;;12.18;8.13;;;;;;;;;;5011032;28;20128;-60
2021/09/08 16:15:21;;;;;;;11.43;7.75;;;;;;;;;;5011281;28;20038;-60
2021/09/08 16:17:47;;;;;;;10.68;7.28;;;;;;;;;;5010946;28;20048;-60
2021/09/08 16:20:13;;;;;;;11.05;7.28;;;;;;;;;;5011336;28;20030;-60
2021/09/08 16:22:38;;;;;;;13.90;8.85;;;;;;;;;;5011239;28;20040;-60
2021/09/08 16:25:05;;;;;;;18.15;11.27;;;;;;;;;;5010544;28;20577;-60
2021/09/08 16:27:30;;;;;;;20.02;11.35;;;;;;;;;;5011012;28;20029;-60
2021/09/08 16:29:56;;;;;;;14.80;9.55;;;;;;;;;;5011127;28;20042;-60
2021/09/08 16:32:22;;;;;;;13.48;9.30;;;;;;;;;;5011087;28;20037;-60
2021/09/08 16:34:48;;;;;;;12.93;8.93;;;;;;;;;;5011023;28;20506;-61
2021/09/08 16:37:13;;;;;;;11.75;9.07;;;;;;;;;;5010908;28;20030;-60
2021/09/08 16:39:40;;;;;;;12.38;7.93;;;;;;;;;;5010625;28;20045;-60
2021/09/08 16:42:05;;;;;;;10.48;7.57;;;;;;;;;;4992736;28;20022;-60
2021/09/08 16:44:32;;;;;;;10.75;6.88;;;;;;;;;;4992462;28;20030;-61
2021/09/08 16:46:58;;;;;;;9.50;7.35;;;;;;;;;;5010342;28;20617;-61
2021/09/08 16:49:23;;;;;;;9.90;7.15;;;;;;;;;;5010519;28;20033;-61
2021/09/08 16:51:49;;;;;;;10.50;7.00;;;;;;;;;;5010266;28;20030;-61
2021/09/08 16:54:14;;;;;;;7.97;7.18;;;;;;;;;;5009910;28;20033;-61
2021/09/08 16:56:40;;;;;;;9.63;6.50;;;;;;;;;;5010026;28;20022;-61
2021/09/08 16:59:05;;;;;;;9.10;6.68;;;;;;;;;;5010152;28;20061;-62
2021/09/08 17:01:30;;;;;;;9.35;6.72;;;;;;;;;;5010171;28;20081;-62
2021/09/08 17:03:56;;;;;;;11.02;6.30;;;;;;;;;;5010209;28;20033;-61
2021/09/08 17:06:21;;;;;;;14.98;6.25;;;;;;;;;;5009912;28;20022;-61
2021/09/08 17:08:47;;;;;;;12.07;6.95;;;;;;;;;;5010222;28;20034;-61
2021/09/08 17:11:13;;;;;;;15.20;7.18;;;;;;;;;;5010288;28;20022;-61
2021/09/08 17:13:38;;;;;;;11.07;6.70;;;;;;;;;;5009973;28;20103;-61
2021/09/08 17:16:04;;;;;;;14.13;7.45;;;;;;;;;;5012644;28;20127;-61
2021/09/08 17:18:29;;;;;;;11.70;6.68;;;;;;;;;;4995806;28;20460;-61
2021/09/08 17:20:55;;;;;;;10.57;6.47;;;;;;;;;;5013433;28;20560;-61
2021/09/08 17:23:21;;;;;;;10.50;6.20;;;;;;;;;;5014141;28;20519;-60
2021/09/08 17:25:46;;;;;;;12.95;6.18;;;;;;;;;;5013891;28;20468;-60
2021/09/08 17:28:18;;;;;;;;;;;;;;;;;;5014237;28;20061;-60
2021/09/08 17:30:44;;;;;;;10.80;5.65;;;;;;;;;;5013699;28;19964;-60
2021/09/08 17:33:11;;;;;;;12.10;6.57;;;;;;;;;;5013602;28;20064;-60
2021/09/08 17:35:37;;;;;;;10.30;6.35;;;;;;;;;;5013646;28;20054;-60
2021/09/08 17:38:03;;;;;;;12.35;6.60;;;;;;;;;;5013408;28;20018;-61
2021/09/08 17:40:29;;;;;;;16.50;7.10;;;;;;;;;;5013595;28;20038;-61
2021/09/08 17:42:56;;;;;;;10.27;6.97;;;;;;;;;;5013374;28;20025;-61
2021/09/08 17:45:21;;;;;;;10.43;7.30;;;;;;;;;;5011783;28;20549;-60
2021/09/08 17:47:50;;;;;;;13.27;7.28;;;;;;;;;;5013570;28;20025;-60
2021/09/08 17:50:17;;;;;;;11.63;8.18;;;;;;;;;;5013405;28;20025;-60
2021/09/08 17:52:43;;;;;;;12.10;8.43;;;;;;;;;;4994844;28;20465;-61
2021/09/08 17:55:12;;;;;;;11.68;7.90;;;;;;;;;;5013292;28;20053;-60
2021/09/08 17:57:38;;;;;;;9.57;7.75;;;;;;;;;;5013060;28;20125;-60
2021/09/08 18:00:05;;;;;;;10.65;7.93;;;;;;;;;;5013300;28;20525;-60
2021/09/08 18:02:40;;;;;;;10.65;7.70;;;;;;;;;;5012969;28;20034;-60
2021/09/08 18:05:09;;;;;;;9.90;8.43;;;;;;;;;;5013043;28;20117;-60
2021/09/08 18:07:35;;;;;;;13.77;9.15;;;;;;;;;;5012845;28;20045;-60
2021/09/08 18:10:02;;;;;;;12.23;8.63;;;;;;;;;;4999151;28;20042;-60
2021/09/08 18:12:27;;;;;;;10.40;8.55;;;;;;;;;;4993259;28;20023;-61
2021/09/08 18:14:53;;;;;;;10.50;7.65;;;;;;;;;;4992623;28;20397;-61
2021/09/08 18:17:19;;;;;;;12.95;8.27;;;;;;;;;;4975154;28;20022;-61
2021/09/08 18:19:44;;;;;;;14.07;8.88;;;;;;;;;;4992411;28;20034;-61
2021/09/08 18:22:10;;;;;;;11.85;9.05;;;;;;;;;;4997081;28;20022;-62
2021/09/08 18:24:37;;;;;;;11.80;9.38;;;;;;;;;;4991450;28;20046;-62
2021/09/08 18:27:03;;;;;;;14.10;10.82;;;;;;;;;;4980439;28;20058;-62
2021/09/08 18:29:31;;;;;;;14.80;10.60;;;;;;;;;;4972621;28;20034;-61
2021/09/08 18:31:57;;;;;;;16.40;10.23;;;;;;;;;;4986041;28;20022;-62
2021/09/08 18:34:23;;;;;;;15.13;10.88;;;;;;;;;;4988524;28;20030;-62
2021/09/08 18:36:50;;;;;;;17.10;11.10;;;;;;;;;;4971224;28;20085;-61
2021/09/08 18:39:16;;;;;;;16.05;12.02;;;;;;;;;;4972754;28;20027;-62
2021/09/08 18:41:42;;;;;;;14.93;11.40;;;;;;;;;;4973400;28;20520;-62
2021/09/08 18:44:09;;;;;;;15.52;10.80;;;;;;;;;;4977644;28;20485;-61
2021/09/08 18:46:35;;;;;;;15.60;10.85;;;;;;;;;;4984470;28;20052;-61
2021/09/08 18:49:00;;;;;;;15.65;10.93;;;;;;;;;;4989146;28;20062;-61
2021/09/08 18:51:26;;;;;;;20.63;12.00;;;;;;;;;;4971870;28;20035;-61
2021/09/08 18:53:51;;;;;;;11.75;9.85;;;;;;;;;;4977352;28;20029;-61
2021/09/08 18:56:17;;;;;;;14.05;10.63;;;;;;;;;;4972327;28;20030;-61
2021/09/08 18:58:42;;;;;;;13.65;10.85;;;;;;;;;;4976728;28;20034;-61
2021/09/08 19:01:08;;;;;;;12.98;10.55;;;;;;;;;;4973998;28;20034;-65
2021/09/08 19:03:35;;;;;;;19.33;11.52;;;;;;;;;;4991538;28;20121;-61
2021/09/08 19:06:01;;;;;;;16.02;11.90;;;;;;;;;;4991210;28;20392;-61
2021/09/08 19:08:30;;;;;;;16.42;11.35;;;;;;;;;;4991674;28;20038;-60
2021/09/08 19:10:56;;;;;;;15.32;10.95;;;;;;;;;;4991760;28;20026;-60
2021/09/08 19:13:23;;;;;;;15.68;11.40;;;;;;;;;;4992161;28;20031;-61
2021/09/08 19:15:50;;;;;;;18.33;12.07;;;;;;;;;;4973687;28;20014;-60
2021/09/08 19:18:17;;;;;;;17.20;12.48;;;;;;;;;;4991710;28;20030;-61
2021/09/08 19:20:42;;;;;;;18.25;11.90;;;;;;;;;;4991564;28;20022;-65
2021/09/08 19:23:09;;;;;;;17.77;12.25;;;;;;;;;;4991428;28;20089;-65
2021/09/08 19:25:34;;;;;;;16.10;11.35;;;;;;;;;;4990615;28;20058;-65
2021/09/08 19:28:00;;;;;;;15.95;11.00;;;;;;;;;;4990180;28;20477;-64
2021/09/08 19:30:30;;;;;;;15.68;11.05;;;;;;;;;;4991095;28;20030;-64
2021/09/08 19:32:56;;;;;;;16.85;11.23;;;;;;;;;;4991393;28;20045;-64
2021/09/08 19:35:21;;;;;;;15.10;11.48;;;;;;;;;;4991478;28;20381;-64
2021/09/08 19:37:47;;;;;;;15.07;11.30;;;;;;;;;;4990647;28;20026;-64
2021/09/08 19:40:13;;;;;;;14.07;11.07;;;;;;;;;;4981862;28;20029;-64
2021/09/08 19:42:39;;;;;;;16.98;11.48;;;;;;;;;;4989984;28;20034;-64
2021/09/08 19:45:05;;;;;;;19.58;13.63;;;;;;;;;;4975297;28;20105;-64
2021/09/08 19:47:31;;;;;;;19.00;13.05;;;;;;;;;;4975163;28;20081;-64
2021/09/08 19:49:57;;;;;;;13.23;10.77;;;;;;;;;;4974755;28;20113;-64
2021/09/08 19:52:22;;;;;;;15.73;11.63;;;;;;;;;;4974749;28;20046;-65
2021/09/08 19:54:47;;;;;;;15.98;11.50;;;;;;;;;;4974648;28;20014;-65
2021/09/08 19:57:13;;;;;;;17.10;11.90;;;;;;;;;;4974729;28;20121;-61
2021/09/08 19:59:38;;;;;;;16.40;12.07;;;;;;;;;;4974620;28;20023;-61
2021/09/08 20:02:04;;;;;;;16.83;11.70;;;;;;;;;;4974810;28;20082;-61
2021/09/08 20:04:29;;;;;;;22.63;12.65;;;;;;;;;;4974768;28;20385;-62
2021/09/08 20:06:55;;;;;;;19.67;13.10;;;;;;;;;;4974676;28;20039;-64
2021/09/08 20:09:20;;;;;;;18.92;13.40;;;;;;;;;;4984846;28;20050;-65
2021/09/08 20:11:46;;;;;;;15.95;11.82;;;;;;;;;;4992776;28;20022;-62
2021/09/08 20:14:11;;;;;;;17.52;12.15;;;;;;;;;;4991948;28;20030;-62
2021/09/08 20:16:37;;;;;;;18.15;12.20;;;;;;;;;;4992744;28;20034;-62
2021/09/08 20:19:04;;;;;;;16.70;12.27;;;;;;;;;;4993853;28;20022;-61
2021/09/08 20:21:30;;;;;;;16.15;11.80;;;;;;;;;;4993313;28;20116;-61
2021/09/08 20:23:55;;;;;;;16.50;12.27;;;;;;;;;;4986424;28;20106;-61
2021/09/08 20:26:21;;;;;;;16.45;12.02;;;;;;;;;;5012484;28;20034;-61
2021/09/08 20:28:47;;;;;;;18.35;12.32;;;;;;;;;;5013617;28;20021;-61
2021/09/08 20:31:12;;;;;;;18.05;12.65;;;;;;;;;;5013456;28;20030;-59
2021/09/08 20:33:38;;;;;;;15.80;11.82;;;;;;;;;;5013457;28;20017;-61
2021/09/08 20:36:03;;;;;;;17.70;13.18;;;;;;;;;;5013466;28;20029;-61
2021/09/08 20:38:29;;;;;;;18.13;11.70;;;;;;;;;;5013297;28;20050;-61
2021/09/08 20:40:54;;;;;;;18.85;13.20;;;;;;;;;;5013144;28;20034;-61
2021/09/08 20:43:20;;;;;;;17.65;12.40;;;;;;;;;;4995542;28;20021;-61
2021/09/08 20:45:49;;;;;;;16.38;12.07;;;;;;;;;;5013190;28;20040;-62
2021/09/08 20:48:14;;;;;;;17.73;12.48;;;;;;;;;;5013615;28;20021;-62
2021/09/08 20:50:40;;;;;;;19.75;14.05;;;;;;;;;;5016930;28;20365;-62
2021/09/08 20:53:08;;;;;;;21.05;13.73;;;;;;;;;;4999466;28;20045;-61
2021/09/08 20:55:33;;;;;;;17.88;13.20;;;;;;;;;;5017303;28;20030;-62
2021/09/08 20:57:59;;;;;;;17.17;12.30;;;;;;;;;;5017018;28;20365;-62
2021/09/08 21:00:24;;;;;;;15.85;12.38;;;;;;;;;;5017060;28;20129;-62
2021/09/08 21:02:50;;;;;;;18.52;13.43;;;;;;;;;;5016188;28;20022;-63
2021/09/08 21:05:15;;;;;;;18.77;14.10;;;;;;;;;;5016900;28;20087;-61
2021/09/08 21:07:41;;;;;;;24.67;15.27;;;;;;;;;;5017159;28;20029;-61
2021/09/08 21:10:06;;;;;;;20.98;14.32;;;;;;;;;;5016708;28;20033;-63
2021/09/08 21:12:32;;;;;;;24.27;15.00;;;;;;;;;;5016716;28;20065;-63
2021/09/08 21:14:57;;;;;;;20.90;14.20;;;;;;;;;;5016774;28;20038;-63
2021/09/08 21:17:23;;;;;;;21.30;14.13;;;;;;;;;;5016871;28;20014;-63
2021/09/08 21:19:48;;;;;;;22.77;14.82;;;;;;;;;;5016592;28;20447;-63
2021/09/08 21:22:14;;;;;;;22.13;14.02;;;;;;;;;;5016647;28;20472;-63
2021/09/08 21:24:39;;;;;;;18.45;13.60;;;;;;;;;;4998657;28;20463;-65
2021/09/08 21:27:05;;;;;;;21.00;14.40;;;;;;;;;;5016630;28;20034;-65
2021/09/08 21:29:30;;;;;;;21.25;14.93;;;;;;;;;;5016342;28;20034;-65
2021/09/08 21:31:56;;;;;;;20.58;14.07;;;;;;;;;;5016524;28;20053;-65
2021/09/08 21:34:22;;;;;;;19.80;14.43;;;;;;;;;;5015181;28;20026;-65
2021/09/08 21:36:47;;;;;;;21.17;13.68;;;;;;;;;;4998618;28;20021;-64
2021/09/08 21:39:13;;;;;;;18.65;14.27;;;;;;;;;;5016173;28;20061;-65
2021/09/08 21:41:38;;;;;;;18.90;13.50;;;;;;;;;;5016321;28;20029;-64